sensor_id;sensor_type;location;lat;lon;timestamp;temperature;humidity
7704;DHT22;3894;49.700;10.770;2022-11-15T00:01:45;6.10;99.90
7704;DHT22;3894;49.700;10.770;2022-11-15T00:04:10;6.10;99.90
7704;DHT22;3894;49.700;10.770;2022-11-15T00:06:36;6.00;99.90
7704;DHT22;3894;49.700;10.770;2022-11-15T00:09:02;6.00;99.90
7704;DHT22;3894;49.700;10.770;2022-11-15T00:11:28;6.00;99.90
7704;DHT22;3894;49.700;10.770;2022-11-15T00:13:56;6.00;99.90
7704;DHT22;3894;49.700;10.770;2022-11-15T00:16:22;6.00;99.90
7704;DHT22;3894;49.700;10.770;2022-11-15T00:18:47;6.00;99.90
7704;DHT22;3894;49.700;10.770;2022-11-15T00:21:14;5.90;99.90
7704;DHT22;3894;49.700;10.770;2022-11-15T00:23:39;5.80;99.90
7704;DHT22;3894;49.700;10.770;2022-11-15T00:26:06;5.80;99.90
7704;DHT22;3894;49.700;10.770;2022-11-15T00:28:31;5.70;99.90
7704;DHT22;3894;49.700;10.770;2022-11-15T00:31:05;5.70;99.90
7704;DHT22;3894;49.700;10.770;2022-11-15T00:33:32;5.70;99.90
7704;DHT22;3894;49.700;10.770;2022-11-15T00:36:06;5.60;99.90
7704;DHT22;3894;49.700;10.770;2022-11-15T00:38:33;5.60;99.90
7704;DHT22;3894;49.700;10.770;2022-11-15T00:40:58;5.60;99.90
7704;DHT22;3894;49.700;10.770;2022-11-15T00:43:24;5.60;99.90
7704;DHT22;3894;49.700;10.770;2022-11-15T00:45:50;5.50;99.90
7704;DHT22;3894;49.700;10.770;2022-11-15T00:48:15;5.50;99.90
7704;DHT22;3894;49.700;10.770;2022-11-15T00:50:41;5.50;99.90
7704;DHT22;3894;49.700;10.770;2022-11-15T00:53:06;5.50;99.90
7704;DHT22;3894;49.700;10.770;2022-11-15T00:55:32;5.50;99.90
7704;DHT22;3894;49.700;10.770;2022-11-15T00:57:57;5.50;99.90
7704;DHT22;3894;49.700;10.770;2022-11-15T01:00:23;5.50;99.90
7704;DHT22;3894;49.700;10.770;2022-11-15T01:02:48;5.50;99.90
7704;DHT22;3894;49.700;10.770;2022-11-15T01:05:14;5.50;99.90
7704;DHT22;3894;49.700;10.770;2022-11-15T01:07:40;5.50;99.90
7704;DHT22;3894;49.700;10.770;2022-11-15T01:10:06;5.50;99.90
7704;DHT22;3894;49.700;10.770;2022-11-15T01:12:32;5.50;99.90
7704;DHT22;3894;49.700;10.770;2022-11-15T01:14:57;5.40;99.90
7704;DHT22;3894;49.700;10.770;2022-11-15T01:17:23;5.40;99.90
7704;DHT22;3894;49.700;10.770;2022-11-15T01:19:49;5.40;99.90
7704;DHT22;3894;49.700;10.770;2022-11-15T01:22:14;5.30;99.90
7704;DHT22;3894;49.700;10.770;2022-11-15T01:24:40;5.40;99.90
7704;DHT22;3894;49.700;10.770;2022-11-15T01:27:05;5.40;99.90
7704;DHT22;3894;49.700;10.770;2022-11-15T01:29:31;5.40;99.90
7704;DHT22;3894;49.700;10.770;2022-11-15T01:31:57;5.40;99.90
7704;DHT22;3894;49.700;10.770;2022-11-15T01:34:22;5.40;99.90
7704;DHT22;3894;49.700;10.770;2022-11-15T01:36:48;5.40;99.90
7704;DHT22;3894;49.700;10.770;2022-11-15T01:39:13;5.40;99.90
7704;DHT22;3894;49.700;10.770;2022-11-15T01:41:40;5.40;99.90
7704;DHT22;3894;49.700;10.770;2022-11-15T01:47:02;5.40;99.90
7704;DHT22;3894;49.700;10.770;2022-11-15T01:49:30;5.40;99.90
7704;DHT22;3894;49.700;10.770;2022-11-15T01:51:58;5.40;99.90
7704;DHT22;3894;49.700;10.770;2022-11-15T01:54:24;5.50;99.90
7704;DHT22;3894;49.700;10.770;2022-11-15T01:57:07;5.50;99.90
7704;DHT22;3894;49.700;10.770;2022-11-15T01:59:33;5.50;99.90
7704;DHT22;3894;49.700;10.770;2022-11-15T02:01:59;5.50;99.90
7704;DHT22;3894;49.700;10.770;2022-11-15T02:04:32;5.50;99.90
7704;DHT22;3894;49.700;10.770;2022-11-15T02:06:58;5.50;99.90
7704;DHT22;3894;49.700;10.770;2022-11-15T02:09:25;5.50;99.90
7704;DHT22;3894;49.700;10.770;2022-11-15T02:11:51;5.50;99.90
7704;DHT22;3894;49.700;10.770;2022-11-15T02:14:18;5.50;99.90
7704;DHT22;3894;49.700;10.770;2022-11-15T02:38:25;5.90;99.90
7704;DHT22;3894;49.700;10.770;2022-11-15T02:41:04;5.90;99.90
7704;DHT22;3894;49.700;10.770;2022-11-15T02:43:46;5.90;99.90
7704;DHT22;3894;49.700;10.770;2022-11-15T02:46:41;5.90;99.90
7704;DHT22;3894;49.700;10.770;2022-11-15T02:49:29;5.90;99.90
7704;DHT22;3894;49.700;10.770;2022-11-15T02:51:56;5.90;99.90
7704;DHT22;3894;49.700;10.770;2022-11-15T02:54:24;6.00;99.90
7704;DHT22;3894;49.700;10.770;2022-11-15T02:56:53;6.00;99.90
7704;DHT22;3894;49.700;10.770;2022-11-15T03:13:31;6.10;99.90
7704;DHT22;3894;49.700;10.770;2022-11-15T03:16:03;6.10;99.90
7704;DHT22;3894;49.700;10.770;2022-11-15T03:18:41;6.10;99.90
7704;DHT22;3894;49.700;10.770;2022-11-15T03:21:09;6.10;99.90
7704;DHT22;3894;49.700;10.770;2022-11-15T03:23:37;6.10;99.90
7704;DHT22;3894;49.700;10.770;2022-11-15T03:26:07;6.10;99.90
7704;DHT22;3894;49.700;10.770;2022-11-15T03:28:45;6.10;99.90
7704;DHT22;3894;49.700;10.770;2022-11-15T03:31:14;6.20;99.90
7704;DHT22;3894;49.700;10.770;2022-11-15T03:34:02;6.20;99.90
7704;DHT22;3894;49.700;10.770;2022-11-15T03:36:30;6.20;99.90
7704;DHT22;3894;49.700;10.770;2022-11-15T03:39:00;6.20;99.90
7704;DHT22;3894;49.700;10.770;2022-11-15T03:41:37;6.20;99.90
7704;DHT22;3894;49.700;10.770;2022-11-15T03:46:43;6.20;99.90
7704;DHT22;3894;49.700;10.770;2022-11-15T03:49:22;6.30;99.90
7704;DHT22;3894;49.700;10.770;2022-11-15T03:51:49;6.20;99.90
7704;DHT22;3894;49.700;10.770;2022-11-15T03:54:15;6.30;99.90
7704;DHT22;3894;49.700;10.770;2022-11-15T03:56:41;6.30;99.90
7704;DHT22;3894;49.700;10.770;2022-11-15T03:59:06;6.30;99.90
7704;DHT22;3894;49.700;10.770;2022-11-15T04:01:32;6.30;99.90
7704;DHT22;3894;49.700;10.770;2022-11-15T04:03:57;6.40;99.90
7704;DHT22;3894;49.700;10.770;2022-11-15T04:06:23;6.30;99.90
7704;DHT22;3894;49.700;10.770;2022-11-15T04:08:48;6.40;99.90
7704;DHT22;3894;49.700;10.770;2022-11-15T04:11:14;6.40;99.90
7704;DHT22;3894;49.700;10.770;2022-11-15T04:13:39;6.40;99.90
7704;DHT22;3894;49.700;10.770;2022-11-15T04:16:05;6.40;99.90
7704;DHT22;3894;49.700;10.770;2022-11-15T04:18:31;6.40;99.90
7704;DHT22;3894;49.700;10.770;2022-11-15T04:20:56;6.40;99.90
7704;DHT22;3894;49.700;10.770;2022-11-15T04:23:40;6.40;99.90
7704;DHT22;3894;49.700;10.770;2022-11-15T04:26:41;6.40;99.90
7704;DHT22;3894;49.700;10.770;2022-11-15T04:29:06;6.40;99.90
7704;DHT22;3894;49.700;10.770;2022-11-15T04:32:06;6.40;99.90
7704;DHT22;3894;49.700;10.770;2022-11-15T04:34:32;6.30;99.90
7704;DHT22;3894;49.700;10.770;2022-11-15T04:36:58;6.30;99.90
7704;DHT22;3894;49.700;10.770;2022-11-15T04:39:41;6.30;99.90
7704;DHT22;3894;49.700;10.770;2022-11-15T04:42:07;6.30;99.90
7704;DHT22;3894;49.700;10.770;2022-11-15T04:44:32;6.20;99.90
7704;DHT22;3894;49.700;10.770;2022-11-15T04:46:58;6.20;99.90
7704;DHT22;3894;49.700;10.770;2022-11-15T04:49:23;6.20;99.90
7704;DHT22;3894;49.700;10.770;2022-11-15T04:51:49;6.10;99.90
7704;DHT22;3894;49.700;10.770;2022-11-15T04:54:14;6.10;99.90
7704;DHT22;3894;49.700;10.770;2022-11-15T04:56:40;6.10;99.90
7704;DHT22;3894;49.700;10.770;2022-11-15T04:59:06;6.10;99.90
7704;DHT22;3894;49.700;10.770;2022-11-15T05:01:31;6.00;99.90
7704;DHT22;3894;49.700;10.770;2022-11-15T05:03:57;6.00;99.90
7704;DHT22;3894;49.700;10.770;2022-11-15T05:06:41;6.00;99.90
7704;DHT22;3894;49.700;10.770;2022-11-15T05:09:07;6.00;99.90
7704;DHT22;3894;49.700;10.770;2022-11-15T05:11:32;5.90;99.90
7704;DHT22;3894;49.700;10.770;2022-11-15T05:13:58;5.90;99.90
7704;DHT22;3894;49.700;10.770;2022-11-15T05:16:23;5.90;99.90
7704;DHT22;3894;49.700;10.770;2022-11-15T05:18:53;5.80;99.90
7704;DHT22;3894;49.700;10.770;2022-11-15T05:21:19;5.80;99.90
7704;DHT22;3894;49.700;10.770;2022-11-15T05:23:45;5.80;99.90
7704;DHT22;3894;49.700;10.770;2022-11-15T05:26:11;5.70;99.90
7704;DHT22;3894;49.700;10.770;2022-11-15T05:28:37;5.60;99.90
7704;DHT22;3894;49.700;10.770;2022-11-15T05:31:04;5.70;99.90
7704;DHT22;3894;49.700;10.770;2022-11-15T05:33:31;5.60;99.90
7704;DHT22;3894;49.700;10.770;2022-11-15T05:36:22;5.60;99.90
7704;DHT22;3894;49.700;10.770;2022-11-15T05:38:50;5.60;99.90
7704;DHT22;3894;49.700;10.770;2022-11-15T05:41:19;5.50;99.90
7704;DHT22;3894;49.700;10.770;2022-11-15T05:43:47;5.50;99.90
7704;DHT22;3894;49.700;10.770;2022-11-15T05:46:13;5.50;99.90
7704;DHT22;3894;49.700;10.770;2022-11-15T05:48:42;5.50;99.90
7704;DHT22;3894;49.700;10.770;2022-11-15T05:51:08;5.40;99.90
7704;DHT22;3894;49.700;10.770;2022-11-15T05:53:34;5.40;99.90
7704;DHT22;3894;49.700;10.770;2022-11-15T05:56:02;5.40;99.90
7704;DHT22;3894;49.700;10.770;2022-11-15T05:58:27;5.40;99.90
7704;DHT22;3894;49.700;10.770;2022-11-15T06:00:54;5.40;99.90
7704;DHT22;3894;49.700;10.770;2022-11-15T06:03:19;5.30;99.90
7704;DHT22;3894;49.700;10.770;2022-11-15T06:05:45;5.30;99.90
7704;DHT22;3894;49.700;10.770;2022-11-15T06:08:10;5.20;99.90
7704;DHT22;3894;49.700;10.770;2022-11-15T06:10:36;5.20;99.90
7704;DHT22;3894;49.700;10.770;2022-11-15T06:13:03;5.20;99.90
7704;DHT22;3894;49.700;10.770;2022-11-15T06:15:29;5.20;99.90
7704;DHT22;3894;49.700;10.770;2022-11-15T06:17:58;5.20;99.90
7704;DHT22;3894;49.700;10.770;2022-11-15T06:20:28;5.10;99.90
7704;DHT22;3894;49.700;10.770;2022-11-15T06:23:01;5.10;99.90
7704;DHT22;3894;49.700;10.770;2022-11-15T06:25:28;5.10;99.90
7704;DHT22;3894;49.700;10.770;2022-11-15T06:27:55;5.10;99.90
7704;DHT22;3894;49.700;10.770;2022-11-15T06:30:22;5.10;99.90
7704;DHT22;3894;49.700;10.770;2022-11-15T06:32:48;5.10;99.90
7704;DHT22;3894;49.700;10.770;2022-11-15T06:35:14;5.10;99.90
7704;DHT22;3894;49.700;10.770;2022-11-15T06:37:40;5.20;99.90
7704;DHT22;3894;49.700;10.770;2022-11-15T06:40:07;5.20;99.90
7704;DHT22;3894;49.700;10.770;2022-11-15T06:42:33;5.20;99.90
7704;DHT22;3894;49.700;10.770;2022-11-15T06:44:59;5.20;99.90
7704;DHT22;3894;49.700;10.770;2022-11-15T06:47:25;5.20;99.90
7704;DHT22;3894;49.700;10.770;2022-11-15T06:49:50;5.10;99.90
7704;DHT22;3894;49.700;10.770;2022-11-15T06:52:16;5.10;99.90
7704;DHT22;3894;49.700;10.770;2022-11-15T06:54:44;5.10;99.90
7704;DHT22;3894;49.700;10.770;2022-11-15T06:57:09;5.10;99.90
7704;DHT22;3894;49.700;10.770;2022-11-15T06:59:35;5.20;99.90
7704;DHT22;3894;49.700;10.770;2022-11-15T07:02:01;5.20;99.90
7704;DHT22;3894;49.700;10.770;2022-11-15T07:04:27;5.20;99.90
7704;DHT22;3894;49.700;10.770;2022-11-15T07:06:53;5.20;99.90
7704;DHT22;3894;49.700;10.770;2022-11-15T07:09:18;5.30;99.90
7704;DHT22;3894;49.700;10.770;2022-11-15T07:11:44;5.30;99.90
7704;DHT22;3894;49.700;10.770;2022-11-15T07:14:09;5.30;99.90
7704;DHT22;3894;49.700;10.770;2022-11-15T07:16:36;5.30;99.90
7704;DHT22;3894;49.700;10.770;2022-11-15T07:19:02;5.30;99.90
7704;DHT22;3894;49.700;10.770;2022-11-15T07:21:27;5.40;99.90
7704;DHT22;3894;49.700;10.770;2022-11-15T07:23:53;5.40;99.90
7704;DHT22;3894;49.700;10.770;2022-11-15T07:26:19;5.40;99.90
7704;DHT22;3894;49.700;10.770;2022-11-15T07:28:44;5.50;99.90
7704;DHT22;3894;49.700;10.770;2022-11-15T07:31:10;5.60;99.90
7704;DHT22;3894;49.700;10.770;2022-11-15T07:33:36;5.60;99.90
7704;DHT22;3894;49.700;10.770;2022-11-15T07:36:02;5.70;99.90
7704;DHT22;3894;49.700;10.770;2022-11-15T07:38:29;5.80;99.90
7704;DHT22;3894;49.700;10.770;2022-11-15T07:41:00;5.90;99.90
7704;DHT22;3894;49.700;10.770;2022-11-15T07:43:26;6.00;99.90
7704;DHT22;3894;49.700;10.770;2022-11-15T07:45:53;6.10;99.90
7704;DHT22;3894;49.700;10.770;2022-11-15T07:48:19;6.20;99.90
7704;DHT22;3894;49.700;10.770;2022-11-15T07:50:45;6.40;99.90
7704;DHT22;3894;49.700;10.770;2022-11-15T07:53:10;6.50;99.90
7704;DHT22;3894;49.700;10.770;2022-11-15T07:55:36;6.70;99.90
7704;DHT22;3894;49.700;10.770;2022-11-15T07:58:07;6.80;99.90
7704;DHT22;3894;49.700;10.770;2022-11-15T08:00:34;7.00;99.90
7704;DHT22;3894;49.700;10.770;2022-11-15T08:03:17;7.20;99.90
7704;DHT22;3894;49.700;10.770;2022-11-15T08:05:50;7.30;99.90
7704;DHT22;3894;49.700;10.770;2022-11-15T08:08:15;7.40;99.90
7704;DHT22;3894;49.700;10.770;2022-11-15T08:10:41;7.50;99.90
7704;DHT22;3894;49.700;10.770;2022-11-15T08:13:09;7.70;99.90
7704;DHT22;3894;49.700;10.770;2022-11-15T08:15:36;7.70;99.90
7704;DHT22;3894;49.700;10.770;2022-11-15T08:18:04;7.80;99.90
7704;DHT22;3894;49.700;10.770;2022-11-15T08:20:31;7.90;99.90
7704;DHT22;3894;49.700;10.770;2022-11-15T08:23:00;8.00;99.90
7704;DHT22;3894;49.700;10.770;2022-11-15T08:25:27;8.10;99.90
7704;DHT22;3894;49.700;10.770;2022-11-15T08:27:58;8.10;99.90
7704;DHT22;3894;49.700;10.770;2022-11-15T08:30:25;8.20;99.90
7704;DHT22;3894;49.700;10.770;2022-11-15T08:32:51;8.30;99.90
7704;DHT22;3894;49.700;10.770;2022-11-15T08:35:17;8.40;99.90
7704;DHT22;3894;49.700;10.770;2022-11-15T08:37:43;8.50;99.90
7704;DHT22;3894;49.700;10.770;2022-11-15T08:40:09;8.70;99.90
7704;DHT22;3894;49.700;10.770;2022-11-15T08:42:35;8.80;99.90
7704;DHT22;3894;49.700;10.770;2022-11-15T08:45:01;8.80;99.90
7704;DHT22;3894;49.700;10.770;2022-11-15T08:47:26;8.90;99.90
7704;DHT22;3894;49.700;10.770;2022-11-15T08:49:52;9.00;99.90
7704;DHT22;3894;49.700;10.770;2022-11-15T08:52:18;8.90;99.90
7704;DHT22;3894;49.700;10.770;2022-11-15T08:54:43;8.80;99.90
7704;DHT22;3894;49.700;10.770;2022-11-15T08:57:09;8.80;99.90
7704;DHT22;3894;49.700;10.770;2022-11-15T08:59:35;8.80;99.90
7704;DHT22;3894;49.700;10.770;2022-11-15T09:02:01;8.80;99.90
7704;DHT22;3894;49.700;10.770;2022-11-15T09:04:27;8.80;99.90
7704;DHT22;3894;49.700;10.770;2022-11-15T09:06:53;8.70;99.90
7704;DHT22;3894;49.700;10.770;2022-11-15T09:09:18;8.70;99.90
7704;DHT22;3894;49.700;10.770;2022-11-15T09:11:44;8.70;99.90
7704;DHT22;3894;49.700;10.770;2022-11-15T09:14:13;8.80;99.90
7704;DHT22;3894;49.700;10.770;2022-11-15T09:16:39;8.90;99.90
7704;DHT22;3894;49.700;10.770;2022-11-15T09:19:05;8.90;99.90
7704;DHT22;3894;49.700;10.770;2022-11-15T09:21:31;8.90;99.90
7704;DHT22;3894;49.700;10.770;2022-11-15T09:23:57;8.90;99.90
7704;DHT22;3894;49.700;10.770;2022-11-15T09:26:23;8.90;99.90
7704;DHT22;3894;49.700;10.770;2022-11-15T09:28:49;8.90;99.90
7704;DHT22;3894;49.700;10.770;2022-11-15T09:31:16;9.00;99.90
7704;DHT22;3894;49.700;10.770;2022-11-15T09:33:44;9.10;99.90
7704;DHT22;3894;49.700;10.770;2022-11-15T09:36:11;9.30;99.90
7704;DHT22;3894;49.700;10.770;2022-11-15T09:38:37;9.40;99.90
7704;DHT22;3894;49.700;10.770;2022-11-15T09:49:02;9.20;99.90
7704;DHT22;3894;49.700;10.770;2022-11-15T09:51:31;9.40;99.90
7704;DHT22;3894;49.700;10.770;2022-11-15T09:54:11;9.50;99.90
7704;DHT22;3894;49.700;10.770;2022-11-15T09:56:39;9.70;99.90
7704;DHT22;3894;49.700;10.770;2022-11-15T09:59:45;9.80;99.90
7704;DHT22;3894;49.700;10.770;2022-11-15T10:05:19;10.10;99.90
7704;DHT22;3894;49.700;10.770;2022-11-15T10:11:01;10.40;99.90
7704;DHT22;3894;49.700;10.770;2022-11-15T10:13:43;10.50;99.90
7704;DHT22;3894;49.700;10.770;2022-11-15T10:16:17;10.60;99.90
7704;DHT22;3894;49.700;10.770;2022-11-15T10:21:17;10.90;99.90
7704;DHT22;3894;49.700;10.770;2022-11-15T10:23:44;11.00;99.90
7704;DHT22;3894;49.700;10.770;2022-11-15T10:26:13;11.10;99.90
7704;DHT22;3894;49.700;10.770;2022-11-15T10:28:40;11.20;99.90
7704;DHT22;3894;49.700;10.770;2022-11-15T10:31:22;11.30;99.90
7704;DHT22;3894;49.700;10.770;2022-11-15T10:33:48;11.40;99.90
7704;DHT22;3894;49.700;10.770;2022-11-15T10:36:20;11.40;99.90
7704;DHT22;3894;49.700;10.770;2022-11-15T10:41:16;11.30;99.90
7704;DHT22;3894;49.700;10.770;2022-11-15T10:43:42;11.40;99.90
7704;DHT22;3894;49.700;10.770;2022-11-15T10:46:21;11.40;99.90
7704;DHT22;3894;49.700;10.770;2022-11-15T10:48:46;11.50;99.90
7704;DHT22;3894;49.700;10.770;2022-11-15T10:51:29;11.50;99.90
7704;DHT22;3894;49.700;10.770;2022-11-15T10:53:57;11.40;99.90
7704;DHT22;3894;49.700;10.770;2022-11-15T10:56:26;11.40;99.90
7704;DHT22;3894;49.700;10.770;2022-11-15T10:58:56;11.30;99.90
7704;DHT22;3894;49.700;10.770;2022-11-15T11:03:59;11.10;99.90
7704;DHT22;3894;49.700;10.770;2022-11-15T11:06:25;11.00;99.90
7704;DHT22;3894;49.700;10.770;2022-11-15T11:08:56;11.00;99.90
7704;DHT22;3894;49.700;10.770;2022-11-15T11:11:22;11.10;99.90
7704;DHT22;3894;49.700;10.770;2022-11-15T11:13:48;11.10;99.90
7704;DHT22;3894;49.700;10.770;2022-11-15T11:19:42;11.20;99.90
7704;DHT22;3894;49.700;10.770;2022-11-15T11:24:41;11.30;99.90
7704;DHT22;3894;49.700;10.770;2022-11-15T11:29:57;11.30;99.90
7704;DHT22;3894;49.700;10.770;2022-11-15T11:32:38;11.40;99.90
7704;DHT22;3894;49.700;10.770;2022-11-15T11:35:54;11.40;99.90
7704;DHT22;3894;49.700;10.770;2022-11-15T11:38:41;11.40;99.90
7704;DHT22;3894;49.700;10.770;2022-11-15T11:49:06;11.60;99.90
7704;DHT22;3894;49.700;10.770;2022-11-15T11:54:50;11.60;99.90
7704;DHT22;3894;49.700;10.770;2022-11-15T12:02:35;11.80;99.90
7704;DHT22;3894;49.700;10.770;2022-11-15T12:05:35;11.80;99.90
7704;DHT22;3894;49.700;10.770;2022-11-15T12:11:14;11.90;99.90
7704;DHT22;3894;49.700;10.770;2022-11-15T12:13:42;12.00;99.90
7704;DHT22;3894;49.700;10.770;2022-11-15T12:18:37;12.10;99.90
7704;DHT22;3894;49.700;10.770;2022-11-15T12:23:39;12.20;99.90
7704;DHT22;3894;49.700;10.770;2022-11-15T12:26:32;12.30;99.90
7704;DHT22;3894;49.700;10.770;2022-11-15T12:29:09;12.30;99.90
7704;DHT22;3894;49.700;10.770;2022-11-15T12:31:40;12.30;99.90
7704;DHT22;3894;49.700;10.770;2022-11-15T12:36:50;12.30;99.90
7704;DHT22;3894;49.700;10.770;2022-11-15T12:39:16;12.30;99.90
7704;DHT22;3894;49.700;10.770;2022-11-15T12:41:45;12.20;99.90
7704;DHT22;3894;49.700;10.770;2022-11-15T13:00:01;12.10;99.90
7704;DHT22;3894;49.700;10.770;2022-11-15T13:02:39;12.10;99.90
7704;DHT22;3894;49.700;10.770;2022-11-15T13:10:30;12.10;99.90
7704;DHT22;3894;49.700;10.770;2022-11-15T13:12:59;12.10;99.90
7704;DHT22;3894;49.700;10.770;2022-11-15T13:20:45;12.20;99.90
7704;DHT22;3894;49.700;10.770;2022-11-15T13:23:13;12.20;99.90
7704;DHT22;3894;49.700;10.770;2022-11-15T13:31:29;12.20;99.90
7704;DHT22;3894;49.700;10.770;2022-11-15T13:34:28;12.30;99.90
7704;DHT22;3894;49.700;10.770;2022-11-15T13:36:54;12.30;99.90
7704;DHT22;3894;49.700;10.770;2022-11-15T13:39:28;12.40;99.90
7704;DHT22;3894;49.700;10.770;2022-11-15T13:41:54;12.40;99.90
7704;DHT22;3894;49.700;10.770;2022-11-15T13:44:25;12.40;99.90
7704;DHT22;3894;49.700;10.770;2022-11-15T13:47:13;12.50;99.90
7704;DHT22;3894;49.700;10.770;2022-11-15T13:49:39;12.50;99.90
7704;DHT22;3894;49.700;10.770;2022-11-15T13:52:15;12.50;99.90
7704;DHT22;3894;49.700;10.770;2022-11-15T13:55:30;12.50;99.90
7704;DHT22;3894;49.700;10.770;2022-11-15T13:57:45;12.40;99.90
7704;DHT22;3894;49.700;10.770;2022-11-15T14:02:53;12.20;99.90
7704;DHT22;3894;49.700;10.770;2022-11-15T14:05:21;12.20;99.90
7704;DHT22;3894;49.700;10.770;2022-11-15T14:07:55;12.10;99.90
7704;DHT22;3894;49.700;10.770;2022-11-15T14:10:31;12.10;99.90
7704;DHT22;3894;49.700;10.770;2022-11-15T14:12:58;12.00;99.90
7704;DHT22;3894;49.700;10.770;2022-11-15T14:15:33;11.90;99.90
7704;DHT22;3894;49.700;10.770;2022-11-15T14:17:59;11.90;99.90
7704;DHT22;3894;49.700;10.770;2022-11-15T14:23:17;12.00;99.90
7704;DHT22;3894;49.700;10.770;2022-11-15T14:25:52;12.00;99.90
7704;DHT22;3894;49.700;10.770;2022-11-15T14:30:52;12.00;99.90
7704;DHT22;3894;49.700;10.770;2022-11-15T14:35:55;12.10;99.90
7704;DHT22;3894;49.700;10.770;2022-11-15T14:38:23;12.10;99.90
7704;DHT22;3894;49.700;10.770;2022-11-15T14:40:48;12.00;99.90
7704;DHT22;3894;49.700;10.770;2022-11-15T14:43:14;12.00;99.90
7704;DHT22;3894;49.700;10.770;2022-11-15T14:45:40;11.90;99.90
7704;DHT22;3894;49.700;10.770;2022-11-15T14:48:06;11.80;99.90
7704;DHT22;3894;49.700;10.770;2022-11-15T14:50:33;11.80;99.90
7704;DHT22;3894;49.700;10.770;2022-11-15T14:52:59;11.70;99.90
7704;DHT22;3894;49.700;10.770;2022-11-15T14:55:30;11.60;99.90
7704;DHT22;3894;49.700;10.770;2022-11-15T14:58:00;11.50;99.90
7704;DHT22;3894;49.700;10.770;2022-11-15T15:00:28;11.50;99.90
7704;DHT22;3894;49.700;10.770;2022-11-15T15:02:55;11.40;99.90
7704;DHT22;3894;49.700;10.770;2022-11-15T15:05:35;11.40;99.90
7704;DHT22;3894;49.700;10.770;2022-11-15T15:08:00;11.30;99.90
7704;DHT22;3894;49.700;10.770;2022-11-15T15:10:41;11.30;99.90
7704;DHT22;3894;49.700;10.770;2022-11-15T15:13:25;11.20;99.90
7704;DHT22;3894;49.700;10.770;2022-11-15T15:15:51;11.10;99.90
7704;DHT22;3894;49.700;10.770;2022-11-15T15:18:18;11.10;99.90
7704;DHT22;3894;49.700;10.770;2022-11-15T15:20:45;11.00;99.90
7704;DHT22;3894;49.700;10.770;2022-11-15T15:23:17;10.90;99.90
7704;DHT22;3894;49.700;10.770;2022-11-15T15:25:43;10.90;99.90
7704;DHT22;3894;49.700;10.770;2022-11-15T15:28:11;10.80;99.90
7704;DHT22;3894;49.700;10.770;2022-11-15T15:30:37;10.80;99.90
7704;DHT22;3894;49.700;10.770;2022-11-15T15:33:02;10.70;99.90
7704;DHT22;3894;49.700;10.770;2022-11-15T15:35:30;10.70;99.90
7704;DHT22;3894;49.700;10.770;2022-11-15T15:37:56;10.60;99.90
7704;DHT22;3894;49.700;10.770;2022-11-15T15:40:23;10.50;99.90
7704;DHT22;3894;49.700;10.770;2022-11-15T15:42:50;10.40;99.90
7704;DHT22;3894;49.700;10.770;2022-11-15T15:45:16;10.30;99.90
7704;DHT22;3894;49.700;10.770;2022-11-15T15:47:42;10.30;99.90
7704;DHT22;3894;49.700;10.770;2022-11-15T15:50:27;10.20;99.90
7704;DHT22;3894;49.700;10.770;2022-11-15T15:52:54;10.20;99.90
7704;DHT22;3894;49.700;10.770;2022-11-15T15:55:20;10.10;99.90
7704;DHT22;3894;49.700;10.770;2022-11-15T15:57:47;10.10;99.90
7704;DHT22;3894;49.700;10.770;2022-11-15T16:00:13;10.00;99.90
7704;DHT22;3894;49.700;10.770;2022-11-15T16:02:40;10.00;99.90
7704;DHT22;3894;49.700;10.770;2022-11-15T16:05:06;10.00;99.90
7704;DHT22;3894;49.700;10.770;2022-11-15T16:07:32;9.90;99.90
7704;DHT22;3894;49.700;10.770;2022-11-15T16:09:57;9.90;99.90
7704;DHT22;3894;49.700;10.770;2022-11-15T16:12:35;9.90;99.90
7704;DHT22;3894;49.700;10.770;2022-11-15T16:15:01;9.90;99.90
7704;DHT22;3894;49.700;10.770;2022-11-15T16:17:31;9.90;99.90
7704;DHT22;3894;49.700;10.770;2022-11-15T16:19:57;9.80;99.90
7704;DHT22;3894;49.700;10.770;2022-11-15T16:22:23;9.80;99.90
7704;DHT22;3894;49.700;10.770;2022-11-15T16:24:48;9.80;99.90
7704;DHT22;3894;49.700;10.770;2022-11-15T16:27:16;9.80;99.90
7704;DHT22;3894;49.700;10.770;2022-11-15T16:29:42;9.70;99.90
7704;DHT22;3894;49.700;10.770;2022-11-15T16:32:09;9.70;99.90
7704;DHT22;3894;49.700;10.770;2022-11-15T16:34:34;9.70;99.90
7704;DHT22;3894;49.700;10.770;2022-11-15T16:37:00;9.70;99.90
7704;DHT22;3894;49.700;10.770;2022-11-15T16:39:26;9.70;99.90
7704;DHT22;3894;49.700;10.770;2022-11-15T16:41:55;9.70;99.90
7704;DHT22;3894;49.700;10.770;2022-11-15T16:44:21;9.80;99.90
7704;DHT22;3894;49.700;10.770;2022-11-15T16:46:47;9.80;99.90
7704;DHT22;3894;49.700;10.770;2022-11-15T16:49:17;9.70;99.90
7704;DHT22;3894;49.700;10.770;2022-11-15T16:51:45;9.70;99.90
7704;DHT22;3894;49.700;10.770;2022-11-15T16:54:11;9.70;99.90
7704;DHT22;3894;49.700;10.770;2022-11-15T16:56:37;9.70;99.90
7704;DHT22;3894;49.700;10.770;2022-11-15T16:59:04;9.70;99.90
7704;DHT22;3894;49.700;10.770;2022-11-15T17:01:31;9.70;99.90
7704;DHT22;3894;49.700;10.770;2022-11-15T17:03:57;9.80;99.90
7704;DHT22;3894;49.700;10.770;2022-11-15T17:06:25;9.80;99.90
7704;DHT22;3894;49.700;10.770;2022-11-15T17:08:51;9.80;99.90
7704;DHT22;3894;49.700;10.770;2022-11-15T17:11:18;9.70;99.90
7704;DHT22;3894;49.700;10.770;2022-11-15T17:13:44;9.80;99.90
7704;DHT22;3894;49.700;10.770;2022-11-15T17:16:12;9.80;99.90
7704;DHT22;3894;49.700;10.770;2022-11-15T17:18:39;9.80;99.90
7704;DHT22;3894;49.700;10.770;2022-11-15T17:21:16;9.80;99.90
7704;DHT22;3894;49.700;10.770;2022-11-15T17:23:43;9.80;99.90
7704;DHT22;3894;49.700;10.770;2022-11-15T17:26:10;9.80;99.90
7704;DHT22;3894;49.700;10.770;2022-11-15T17:28:37;9.80;99.90
7704;DHT22;3894;49.700;10.770;2022-11-15T17:31:06;9.80;99.90
7704;DHT22;3894;49.700;10.770;2022-11-15T17:33:32;9.80;99.90
7704;DHT22;3894;49.700;10.770;2022-11-15T17:35:59;9.80;99.90
7704;DHT22;3894;49.700;10.770;2022-11-15T17:38:25;9.80;99.90
7704;DHT22;3894;49.700;10.770;2022-11-15T17:41:06;9.80;99.90
7704;DHT22;3894;49.700;10.770;2022-11-15T17:43:34;9.80;99.90
7704;DHT22;3894;49.700;10.770;2022-11-15T17:46:04;9.70;99.90
7704;DHT22;3894;49.700;10.770;2022-11-15T17:48:30;9.70;99.90
7704;DHT22;3894;49.700;10.770;2022-11-15T17:50:57;9.80;99.90
7704;DHT22;3894;49.700;10.770;2022-11-15T17:53:24;9.80;99.90
7704;DHT22;3894;49.700;10.770;2022-11-15T17:55:49;9.80;99.90
7704;DHT22;3894;49.700;10.770;2022-11-15T17:58:15;9.80;99.90
7704;DHT22;3894;49.700;10.770;2022-11-15T18:00:47;9.80;99.90
7704;DHT22;3894;49.700;10.770;2022-11-15T18:03:13;9.70;99.90
7704;DHT22;3894;49.700;10.770;2022-11-15T18:05:40;9.70;99.90
7704;DHT22;3894;49.700;10.770;2022-11-15T18:08:12;9.70;99.90
7704;DHT22;3894;49.700;10.770;2022-11-15T18:10:40;9.70;99.90
7704;DHT22;3894;49.700;10.770;2022-11-15T18:13:06;9.70;99.90
7704;DHT22;3894;49.700;10.770;2022-11-15T18:15:33;9.60;99.90
7704;DHT22;3894;49.700;10.770;2022-11-15T18:17:59;9.60;99.90
7704;DHT22;3894;49.700;10.770;2022-11-15T18:20:24;9.60;99.90
7704;DHT22;3894;49.700;10.770;2022-11-15T18:22:52;9.60;99.90
7704;DHT22;3894;49.700;10.770;2022-11-15T18:25:18;9.50;99.90
7704;DHT22;3894;49.700;10.770;2022-11-15T18:27:44;9.50;99.90
7704;DHT22;3894;49.700;10.770;2022-11-15T18:30:10;9.50;99.90